sensor_id;sensor_type;location;lat;lon;timestamp;temperature;humidity
4461;DHT22;2243;48.812;9.232;2023-07-20T00:02:29;22.60;83.90
4461;DHT22;2243;48.812;9.232;2023-07-20T00:05:00;22.60;83.70
4461;DHT22;2243;48.812;9.232;2023-07-20T00:07:30;22.60;84.30
4461;DHT22;2243;48.812;9.232;2023-07-20T00:10:01;22.60;84.40
4461;DHT22;2243;48.812;9.232;2023-07-20T00:12:32;22.30;84.90
4461;DHT22;2243;48.812;9.232;2023-07-20T00:15:04;22.30;84.90
4461;DHT22;2243;48.812;9.232;2023-07-20T00:17:35;22.30;84.60
4461;DHT22;2243;48.812;9.232;2023-07-20T00:20:08;22.20;84.60
4461;DHT22;2243;48.812;9.232;2023-07-20T00:22:40;22.20;84.60
4461;DHT22;2243;48.812;9.232;2023-07-20T00:25:11;22.10;84.90
4461;DHT22;2243;48.812;9.232;2023-07-20T00:27:42;22.10;84.60
4461;DHT22;2243;48.812;9.232;2023-07-20T00:30:13;22.10;84.10
4461;DHT22;2243;48.812;9.232;2023-07-20T00:32:45;22.00;86.00
4461;DHT22;2243;48.812;9.232;2023-07-20T00:35:16;22.00;83.80
4461;DHT22;2243;48.812;9.232;2023-07-20T00:37:47;21.90;83.60
4461;DHT22;2243;48.812;9.232;2023-07-20T00:40:18;21.90;83.00
4461;DHT22;2243;48.812;9.232;2023-07-20T00:42:48;21.90;82.40
4461;DHT22;2243;48.812;9.232;2023-07-20T00:45:19;21.80;82.20
4461;DHT22;2243;48.812;9.232;2023-07-20T00:47:50;21.80;81.70
4461;DHT22;2243;48.812;9.232;2023-07-20T00:50:22;21.70;81.50
4461;DHT22;2243;48.812;9.232;2023-07-20T00:52:55;21.70;81.60
4461;DHT22;2243;48.812;9.232;2023-07-20T00:55:28;21.60;81.70
4461;DHT22;2243;48.812;9.232;2023-07-20T00:58:00;21.60;81.60
4461;DHT22;2243;48.812;9.232;2023-07-20T01:00:31;21.50;81.70
4461;DHT22;2243;48.812;9.232;2023-07-20T01:03:02;21.60;82.40
4461;DHT22;2243;48.812;9.232;2023-07-20T01:09:01;21.50;81.60
4461;DHT22;2243;48.812;9.232;2023-07-20T01:11:51;21.50;82.70
4461;DHT22;2243;48.812;9.232;2023-07-20T01:14:29;21.40;82.20
4461;DHT22;2243;48.812;9.232;2023-07-20T01:17:03;21.30;82.40
4461;DHT22;2243;48.812;9.232;2023-07-20T01:19:34;21.40;82.30
4461;DHT22;2243;48.812;9.232;2023-07-20T01:25:58;21.20;82.70
4461;DHT22;2243;48.812;9.232;2023-07-20T01:32:02;21.20;83.20
4461;DHT22;2243;48.812;9.232;2023-07-20T01:34:35;21.10;83.00
4461;DHT22;2243;48.812;9.232;2023-07-20T01:37:08;21.10;83.20
4461;DHT22;2243;48.812;9.232;2023-07-20T01:39:40;21.10;83.30
4461;DHT22;2243;48.812;9.232;2023-07-20T01:42:11;21.00;83.80
4461;DHT22;2243;48.812;9.232;2023-07-20T01:44:42;20.90;84.10
4461;DHT22;2243;48.812;9.232;2023-07-20T01:47:13;20.90;84.50
4461;DHT22;2243;48.812;9.232;2023-07-20T01:49:44;20.90;84.60
4461;DHT22;2243;48.812;9.232;2023-07-20T01:52:15;20.90;84.50
4461;DHT22;2243;48.812;9.232;2023-07-20T01:54:46;20.80;84.80
4461;DHT22;2243;48.812;9.232;2023-07-20T01:57:17;20.70;85.10
4461;DHT22;2243;48.812;9.232;2023-07-20T01:59:48;20.70;85.20
4461;DHT22;2243;48.812;9.232;2023-07-20T02:02:19;20.70;85.40
4461;DHT22;2243;48.812;9.232;2023-07-20T02:04:51;20.70;85.30
4461;DHT22;2243;48.812;9.232;2023-07-20T02:07:22;20.60;86.80
4461;DHT22;2243;48.812;9.232;2023-07-20T02:09:53;20.50;86.60
4461;DHT22;2243;48.812;9.232;2023-07-20T02:12:24;20.60;86.20
4461;DHT22;2243;48.812;9.232;2023-07-20T02:14:55;20.60;85.90
4461;DHT22;2243;48.812;9.232;2023-07-20T02:17:26;20.60;86.30
4461;DHT22;2243;48.812;9.232;2023-07-20T02:19:57;20.60;86.10
4461;DHT22;2243;48.812;9.232;2023-07-20T02:22:28;20.60;86.60
4461;DHT22;2243;48.812;9.232;2023-07-20T02:24:59;20.50;86.80
4461;DHT22;2243;48.812;9.232;2023-07-20T02:27:30;20.40;87.20
4461;DHT22;2243;48.812;9.232;2023-07-20T02:30:01;20.50;87.70
4461;DHT22;2243;48.812;9.232;2023-07-20T02:32:33;20.40;87.40
4461;DHT22;2243;48.812;9.232;2023-07-20T02:35:05;20.40;88.20
4461;DHT22;2243;48.812;9.232;2023-07-20T02:37:36;20.40;88.10
4461;DHT22;2243;48.812;9.232;2023-07-20T02:40:08;20.40;87.80
4461;DHT22;2243;48.812;9.232;2023-07-20T02:42:39;20.40;88.00
4461;DHT22;2243;48.812;9.232;2023-07-20T02:45:10;20.30;89.80
4461;DHT22;2243;48.812;9.232;2023-07-20T02:47:41;20.30;89.00
4461;DHT22;2243;48.812;9.232;2023-07-20T02:50:12;20.30;88.50
4461;DHT22;2243;48.812;9.232;2023-07-20T02:52:44;20.40;88.00
4461;DHT22;2243;48.812;9.232;2023-07-20T02:55:16;20.30;89.10
4461;DHT22;2243;48.812;9.232;2023-07-20T02:57:47;20.30;90.20
4461;DHT22;2243;48.812;9.232;2023-07-20T03:00:18;20.30;88.50
4461;DHT22;2243;48.812;9.232;2023-07-20T03:02:53;20.30;88.60
4461;DHT22;2243;48.812;9.232;2023-07-20T03:05:31;20.30;89.50
4461;DHT22;2243;48.812;9.232;2023-07-20T03:08:02;20.10;89.80
4461;DHT22;2243;48.812;9.232;2023-07-20T03:10:38;20.10;89.40
4461;DHT22;2243;48.812;9.232;2023-07-20T03:13:11;20.10;89.70
4461;DHT22;2243;48.812;9.232;2023-07-20T03:15:43;20.10;89.70
4461;DHT22;2243;48.812;9.232;2023-07-20T03:18:14;20.10;89.60
4461;DHT22;2243;48.812;9.232;2023-07-20T03:20:45;20.00;89.60
4461;DHT22;2243;48.812;9.232;2023-07-20T03:23:16;19.90;90.00
4461;DHT22;2243;48.812;9.232;2023-07-20T03:25:48;19.80;90.40
4461;DHT22;2243;48.812;9.232;2023-07-20T03:28:19;19.80;90.60
4461;DHT22;2243;48.812;9.232;2023-07-20T03:30:53;19.80;90.40
4461;DHT22;2243;48.812;9.232;2023-07-20T03:33:29;19.90;90.60
4461;DHT22;2243;48.812;9.232;2023-07-20T03:36:01;19.80;90.40
4461;DHT22;2243;48.812;9.232;2023-07-20T03:38:32;19.70;90.50
4461;DHT22;2243;48.812;9.232;2023-07-20T03:41:03;19.70;90.70
4461;DHT22;2243;48.812;9.232;2023-07-20T03:43:34;19.70;90.60
4461;DHT22;2243;48.812;9.232;2023-07-20T03:46:05;19.70;90.70
4461;DHT22;2243;48.812;9.232;2023-07-20T03:48:37;19.70;91.10
4461;DHT22;2243;48.812;9.232;2023-07-20T03:51:08;19.70;90.80
4461;DHT22;2243;48.812;9.232;2023-07-20T03:53:39;19.60;91.10
4461;DHT22;2243;48.812;9.232;2023-07-20T03:56:10;19.60;90.90
4461;DHT22;2243;48.812;9.232;2023-07-20T03:58:41;19.60;91.00
4461;DHT22;2243;48.812;9.232;2023-07-20T04:01:12;19.60;90.90
4461;DHT22;2243;48.812;9.232;2023-07-20T04:03:43;19.60;91.20
4461;DHT22;2243;48.812;9.232;2023-07-20T04:06:19;19.60;90.90
4461;DHT22;2243;48.812;9.232;2023-07-20T04:08:50;19.60;91.20
4461;DHT22;2243;48.812;9.232;2023-07-20T04:11:21;19.50;91.20
4461;DHT22;2243;48.812;9.232;2023-07-20T04:13:52;19.50;91.30
4461;DHT22;2243;48.812;9.232;2023-07-20T04:16:23;19.40;91.50
4461;DHT22;2243;48.812;9.232;2023-07-20T04:18:55;19.10;91.80
4461;DHT22;2243;48.812;9.232;2023-07-20T04:21:27;19.20;92.00
4461;DHT22;2243;48.812;9.232;2023-07-20T04:23:58;19.20;92.10
4461;DHT22;2243;48.812;9.232;2023-07-20T04:26:30;19.20;92.00
4461;DHT22;2243;48.812;9.232;2023-07-20T04:29:01;19.10;92.50
4461;DHT22;2243;48.812;9.232;2023-07-20T04:31:31;19.20;92.20
4461;DHT22;2243;48.812;9.232;2023-07-20T04:34:04;19.20;92.50
4461;DHT22;2243;48.812;9.232;2023-07-20T04:36:35;19.20;92.60
4461;DHT22;2243;48.812;9.232;2023-07-20T04:39:06;19.00;92.70
4461;DHT22;2243;48.812;9.232;2023-07-20T04:41:58;18.90;93.20
4461;DHT22;2243;48.812;9.232;2023-07-20T04:44:29;18.90;93.20
4461;DHT22;2243;48.812;9.232;2023-07-20T04:47:00;19.10;93.10
4461;DHT22;2243;48.812;9.232;2023-07-20T04:49:31;19.20;92.80
4461;DHT22;2243;48.812;9.232;2023-07-20T04:52:03;19.30;92.50
4461;DHT22;2243;48.812;9.232;2023-07-20T04:54:34;19.40;92.60
4461;DHT22;2243;48.812;9.232;2023-07-20T04:57:10;19.50;92.40
4461;DHT22;2243;48.812;9.232;2023-07-20T04:59:42;19.50;92.40
4461;DHT22;2243;48.812;9.232;2023-07-20T05:02:13;19.50;92.40
4461;DHT22;2243;48.812;9.232;2023-07-20T05:04:44;19.50;92.40
4461;DHT22;2243;48.812;9.232;2023-07-20T05:07:15;19.50;92.40
4461;DHT22;2243;48.812;9.232;2023-07-20T05:09:46;19.60;92.50
4461;DHT22;2243;48.812;9.232;2023-07-20T05:12:17;19.60;92.50
4461;DHT22;2243;48.812;9.232;2023-07-20T05:14:50;19.70;92.50
4461;DHT22;2243;48.812;9.232;2023-07-20T05:17:21;19.70;92.50
4461;DHT22;2243;48.812;9.232;2023-07-20T05:19:52;19.80;92.40
4461;DHT22;2243;48.812;9.232;2023-07-20T05:22:23;19.70;92.50
4461;DHT22;2243;48.812;9.232;2023-07-20T05:24:55;19.80;92.40
4461;DHT22;2243;48.812;9.232;2023-07-20T05:27:26;19.90;92.40
4461;DHT22;2243;48.812;9.232;2023-07-20T05:29:57;20.00;92.50
4461;DHT22;2243;48.812;9.232;2023-07-20T05:32:28;20.00;92.30
4461;DHT22;2243;48.812;9.232;2023-07-20T05:34:59;20.10;92.20
4461;DHT22;2243;48.812;9.232;2023-07-20T05:37:30;20.10;92.10
4461;DHT22;2243;48.812;9.232;2023-07-20T05:40:01;20.30;91.90
4461;DHT22;2243;48.812;9.232;2023-07-20T05:42:32;20.30;91.80
4461;DHT22;2243;48.812;9.232;2023-07-20T05:45:03;20.30;91.60
4461;DHT22;2243;48.812;9.232;2023-07-20T05:47:34;20.30;91.80
4461;DHT22;2243;48.812;9.232;2023-07-20T05:50:06;20.30;91.70
4461;DHT22;2243;48.812;9.232;2023-07-20T05:52:37;20.40;91.60
4461;DHT22;2243;48.812;9.232;2023-07-20T05:55:09;20.40;91.60
4461;DHT22;2243;48.812;9.232;2023-07-20T05:57:41;20.40;91.70
4461;DHT22;2243;48.812;9.232;2023-07-20T06:00:14;20.40;91.80
4461;DHT22;2243;48.812;9.232;2023-07-20T06:02:45;20.50;91.70
4461;DHT22;2243;48.812;9.232;2023-07-20T06:05:17;20.60;91.80
4461;DHT22;2243;48.812;9.232;2023-07-20T06:07:48;20.50;91.60
4461;DHT22;2243;48.812;9.232;2023-07-20T06:10:18;20.50;91.70
4461;DHT22;2243;48.812;9.232;2023-07-20T06:12:49;20.60;91.50
4461;DHT22;2243;48.812;9.232;2023-07-20T06:15:28;20.70;91.50
4461;DHT22;2243;48.812;9.232;2023-07-20T06:18:01;20.80;91.10
4461;DHT22;2243;48.812;9.232;2023-07-20T06:20:34;20.70;91.30
4461;DHT22;2243;48.812;9.232;2023-07-20T06:23:05;20.80;91.20
4461;DHT22;2243;48.812;9.232;2023-07-20T06:25:39;20.80;91.30
4461;DHT22;2243;48.812;9.232;2023-07-20T06:28:10;20.90;91.40
4461;DHT22;2243;48.812;9.232;2023-07-20T06:30:41;20.90;91.50
4461;DHT22;2243;48.812;9.232;2023-07-20T06:33:12;21.00;91.30
4461;DHT22;2243;48.812;9.232;2023-07-20T06:35:43;21.00;91.50
4461;DHT22;2243;48.812;9.232;2023-07-20T06:38:14;21.00;91.70
4461;DHT22;2243;48.812;9.232;2023-07-20T06:40:49;21.10;91.60
4461;DHT22;2243;48.812;9.232;2023-07-20T06:43:20;21.30;91.70
4461;DHT22;2243;48.812;9.232;2023-07-20T06:45:54;21.40;91.60
4461;DHT22;2243;48.812;9.232;2023-07-20T06:48:26;21.40;91.20
4461;DHT22;2243;48.812;9.232;2023-07-20T06:50:56;21.40;91.40
4461;DHT22;2243;48.812;9.232;2023-07-20T06:53:28;21.40;91.70
4461;DHT22;2243;48.812;9.232;2023-07-20T06:55:59;21.40;91.60
4461;DHT22;2243;48.812;9.232;2023-07-20T06:58:31;21.40;91.70
4461;DHT22;2243;48.812;9.232;2023-07-20T07:01:05;21.40;91.80
4461;DHT22;2243;48.812;9.232;2023-07-20T07:03:38;21.40;91.70
4461;DHT22;2243;48.812;9.232;2023-07-20T07:06:09;21.40;91.80
4461;DHT22;2243;48.812;9.232;2023-07-20T07:08:41;21.40;91.50
4461;DHT22;2243;48.812;9.232;2023-07-20T07:11:13;21.50;91.50
4461;DHT22;2243;48.812;9.232;2023-07-20T07:13:45;21.40;91.40
4461;DHT22;2243;48.812;9.232;2023-07-20T07:16:17;21.50;91.70
4461;DHT22;2243;48.812;9.232;2023-07-20T07:18:51;21.60;91.40
4461;DHT22;2243;48.812;9.232;2023-07-20T07:21:22;21.50;91.30
4461;DHT22;2243;48.812;9.232;2023-07-20T07:23:53;21.50;91.40
4461;DHT22;2243;48.812;9.232;2023-07-20T07:26:28;21.50;91.40
4461;DHT22;2243;48.812;9.232;2023-07-20T07:28:59;21.50;91.40
4461;DHT22;2243;48.812;9.232;2023-07-20T07:31:30;21.60;91.50
4461;DHT22;2243;48.812;9.232;2023-07-20T07:34:04;21.60;90.80
4461;DHT22;2243;48.812;9.232;2023-07-20T07:36:35;21.60;90.80
4461;DHT22;2243;48.812;9.232;2023-07-20T07:39:06;21.50;90.70
4461;DHT22;2243;48.812;9.232;2023-07-20T07:41:40;21.50;91.30
4461;DHT22;2243;48.812;9.232;2023-07-20T07:44:11;21.70;90.90
4461;DHT22;2243;48.812;9.232;2023-07-20T07:46:42;21.70;90.20
4461;DHT22;2243;48.812;9.232;2023-07-20T07:49:13;21.60;90.30
4461;DHT22;2243;48.812;9.232;2023-07-20T07:51:44;21.70;90.30
4461;DHT22;2243;48.812;9.232;2023-07-20T07:54:15;21.70;90.00
4461;DHT22;2243;48.812;9.232;2023-07-20T07:56:46;21.70;89.80
4461;DHT22;2243;48.812;9.232;2023-07-20T07:59:17;21.80;90.00
4461;DHT22;2243;48.812;9.232;2023-07-20T08:01:48;21.80;89.70
4461;DHT22;2243;48.812;9.232;2023-07-20T08:04:20;21.70;90.10
4461;DHT22;2243;48.812;9.232;2023-07-20T08:06:51;21.80;90.10
4461;DHT22;2243;48.812;9.232;2023-07-20T08:09:22;21.90;90.00
4461;DHT22;2243;48.812;9.232;2023-07-20T08:11:53;22.00;90.10
4461;DHT22;2243;48.812;9.232;2023-07-20T08:14:24;22.30;89.80
4461;DHT22;2243;48.812;9.232;2023-07-20T08:16:55;22.40;90.10
4461;DHT22;2243;48.812;9.232;2023-07-20T08:19:27;22.50;89.60
4461;DHT22;2243;48.812;9.232;2023-07-20T08:21:58;22.60;88.40
4461;DHT22;2243;48.812;9.232;2023-07-20T08:24:29;22.40;88.00
4461;DHT22;2243;48.812;9.232;2023-07-20T08:27:00;22.40;88.20
4461;DHT22;2243;48.812;9.232;2023-07-20T08:29:31;22.40;87.20
4461;DHT22;2243;48.812;9.232;2023-07-20T08:32:03;22.40;87.60
4461;DHT22;2243;48.812;9.232;2023-07-20T08:34:35;22.40;88.30
4461;DHT22;2243;48.812;9.232;2023-07-20T08:37:06;22.30;88.90
4461;DHT22;2243;48.812;9.232;2023-07-20T08:39:37;22.30;88.90
4461;DHT22;2243;48.812;9.232;2023-07-20T08:42:09;22.20;88.70
4461;DHT22;2243;48.812;9.232;2023-07-20T08:44:42;22.20;88.80
4461;DHT22;2243;48.812;9.232;2023-07-20T08:47:16;22.10;89.30
4461;DHT22;2243;48.812;9.232;2023-07-20T08:49:50;22.20;89.50
4461;DHT22;2243;48.812;9.232;2023-07-20T08:52:23;22.30;88.60
4461;DHT22;2243;48.812;9.232;2023-07-20T08:54:53;22.40;86.80
4461;DHT22;2243;48.812;9.232;2023-07-20T08:57:25;22.50;86.80
4461;DHT22;2243;48.812;9.232;2023-07-20T08:59:57;22.50;87.20
4461;DHT22;2243;48.812;9.232;2023-07-20T09:02:28;22.60;86.60
4461;DHT22;2243;48.812;9.232;2023-07-20T09:05:00;22.60;87.20
4461;DHT22;2243;48.812;9.232;2023-07-20T09:07:32;22.70;86.30
4461;DHT22;2243;48.812;9.232;2023-07-20T09:10:04;22.70;85.50
4461;DHT22;2243;48.812;9.232;2023-07-20T09:12:38;22.90;85.30
4461;DHT22;2243;48.812;9.232;2023-07-20T09:15:11;23.00;84.20
4461;DHT22;2243;48.812;9.232;2023-07-20T09:17:47;23.10;84.60
4461;DHT22;2243;48.812;9.232;2023-07-20T09:20:20;23.20;83.90
4461;DHT22;2243;48.812;9.232;2023-07-20T09:22:53;23.20;84.30
4461;DHT22;2243;48.812;9.232;2023-07-20T09:25:26;23.30;84.10
4461;DHT22;2243;48.812;9.232;2023-07-20T09:28:02;23.50;83.50
4461;DHT22;2243;48.812;9.232;2023-07-20T09:30:35;23.60;83.10
4461;DHT22;2243;48.812;9.232;2023-07-20T09:33:19;23.50;83.60
4461;DHT22;2243;48.812;9.232;2023-07-20T09:36:02;23.50;83.30
4461;DHT22;2243;48.812;9.232;2023-07-20T09:38:53;23.50;83.30
4461;DHT22;2243;48.812;9.232;2023-07-20T09:41:28;23.40;83.00
4461;DHT22;2243;48.812;9.232;2023-07-20T09:44:02;23.10;82.40
4461;DHT22;2243;48.812;9.232;2023-07-20T09:46:53;23.00;81.60
4461;DHT22;2243;48.812;9.232;2023-07-20T09:49:27;23.00;82.70
4461;DHT22;2243;48.812;9.232;2023-07-20T09:52:00;23.00;83.10
4461;DHT22;2243;48.812;9.232;2023-07-20T09:54:33;23.10;81.90
4461;DHT22;2243;48.812;9.232;2023-07-20T09:57:07;23.30;81.90
4461;DHT22;2243;48.812;9.232;2023-07-20T09:59:39;23.50;81.00
4461;DHT22;2243;48.812;9.232;2023-07-20T10:02:21;23.60;81.20
4461;DHT22;2243;48.812;9.232;2023-07-20T10:04:56;23.70;80.40
4461;DHT22;2243;48.812;9.232;2023-07-20T10:07:36;23.60;80.00
4461;DHT22;2243;48.812;9.232;2023-07-20T10:10:11;23.50;79.20
4461;DHT22;2243;48.812;9.232;2023-07-20T10:12:47;23.60;78.40
4461;DHT22;2243;48.812;9.232;2023-07-20T10:15:20;23.60;77.80
4461;DHT22;2243;48.812;9.232;2023-07-20T10:18:07;23.60;77.20
4461;DHT22;2243;48.812;9.232;2023-07-20T10:20:47;23.70;77.60
4461;DHT22;2243;48.812;9.232;2023-07-20T10:23:23;23.80;76.70
4461;DHT22;2243;48.812;9.232;2023-07-20T10:25:56;23.80;76.50
4461;DHT22;2243;48.812;9.232;2023-07-20T10:28:29;23.90;75.30
4461;DHT22;2243;48.812;9.232;2023-07-20T10:31:00;23.80;75.30
4461;DHT22;2243;48.812;9.232;2023-07-20T10:33:32;23.70;75.40
4461;DHT22;2243;48.812;9.232;2023-07-20T10:36:04;23.80;75.50
4461;DHT22;2243;48.812;9.232;2023-07-20T10:39:02;23.80;74.50
4461;DHT22;2243;48.812;9.232;2023-07-20T10:41:34;23.80;74.90
4461;DHT22;2243;48.812;9.232;2023-07-20T10:44:09;23.90;74.60
4461;DHT22;2243;48.812;9.232;2023-07-20T10:46:44;23.90;75.10
4461;DHT22;2243;48.812;9.232;2023-07-20T10:49:17;24.00;74.70
4461;DHT22;2243;48.812;9.232;2023-07-20T10:51:57;24.00;73.60
4461;DHT22;2243;48.812;9.232;2023-07-20T10:57:24;24.00;73.40
4461;DHT22;2243;48.812;9.232;2023-07-20T11:00:19;24.00;73.50
4461;DHT22;2243;48.812;9.232;2023-07-20T11:02:58;24.30;73.00
4461;DHT22;2243;48.812;9.232;2023-07-20T11:05:35;24.30;73.00
4461;DHT22;2243;48.812;9.232;2023-07-20T11:08:12;24.40;73.10
4461;DHT22;2243;48.812;9.232;2023-07-20T11:10:43;24.50;72.00
4461;DHT22;2243;48.812;9.232;2023-07-20T11:13:22;24.40;72.50
4461;DHT22;2243;48.812;9.232;2023-07-20T11:18:28;24.70;71.10
4461;DHT22;2243;48.812;9.232;2023-07-20T11:21:02;24.70;70.70
4461;DHT22;2243;48.812;9.232;2023-07-20T11:23:33;24.60;70.80
4461;DHT22;2243;48.812;9.232;2023-07-20T11:26:04;24.90;70.50
4461;DHT22;2243;48.812;9.232;2023-07-20T11:28:36;25.40;68.30
4461;DHT22;2243;48.812;9.232;2023-07-20T11:31:07;25.70;68.50
4461;DHT22;2243;48.812;9.232;2023-07-20T11:33:38;26.80;66.70
4461;DHT22;2243;48.812;9.232;2023-07-20T11:36:09;28.00;64.90
4461;DHT22;2243;48.812;9.232;2023-07-20T11:38:45;27.70;66.90
4461;DHT22;2243;48.812;9.232;2023-07-20T11:41:16;28.10;65.90
4461;DHT22;2243;48.812;9.232;2023-07-20T11:43:48;29.40;62.40
4461;DHT22;2243;48.812;9.232;2023-07-20T11:46:20;29.10;62.20
4461;DHT22;2243;48.812;9.232;2023-07-20T11:49:01;28.80;62.70
4461;DHT22;2243;48.812;9.232;2023-07-20T11:51:33;28.70;63.10
4461;DHT22;2243;48.812;9.232;2023-07-20T11:54:06;28.40;62.50
4461;DHT22;2243;48.812;9.232;2023-07-20T11:56:41;28.30;62.60
4461;DHT22;2243;48.812;9.232;2023-07-20T11:59:13;28.70;61.00
4461;DHT22;2243;48.812;9.232;2023-07-20T12:01:44;28.80;60.60
4461;DHT22;2243;48.812;9.232;2023-07-20T12:04:15;28.40;61.40
4461;DHT22;2243;48.812;9.232;2023-07-20T12:06:47;28.10;61.80
4461;DHT22;2243;48.812;9.232;2023-07-20T12:09:18;27.70;63.80
4461;DHT22;2243;48.812;9.232;2023-07-20T12:11:50;27.80;62.50
4461;DHT22;2243;48.812;9.232;2023-07-20T12:14:21;27.80;62.80
4461;DHT22;2243;48.812;9.232;2023-07-20T12:16:56;27.40;63.40
4461;DHT22;2243;48.812;9.232;2023-07-20T12:19:27;27.60;62.70
4461;DHT22;2243;48.812;9.232;2023-07-20T12:21:58;27.60;62.30
4461;DHT22;2243;48.812;9.232;2023-07-20T12:24:32;27.70;61.30
4461;DHT22;2243;48.812;9.232;2023-07-20T12:27:03;27.80;60.60
4461;DHT22;2243;48.812;9.232;2023-07-20T12:29:36;27.70;61.40
4461;DHT22;2243;48.812;9.232;2023-07-20T12:32:07;27.80;61.00
4461;DHT22;2243;48.812;9.232;2023-07-20T12:34:39;27.50;62.10
4461;DHT22;2243;48.812;9.232;2023-07-20T12:37:10;27.20;63.20
4461;DHT22;2243;48.812;9.232;2023-07-20T12:39:42;27.10;63.20
4461;DHT22;2243;48.812;9.232;2023-07-20T12:42:18;27.00;63.80
4461;DHT22;2243;48.812;9.232;2023-07-20T12:44:50;27.00;63.30
4461;DHT22;2243;48.812;9.232;2023-07-20T12:47:21;27.00;62.60
4461;DHT22;2243;48.812;9.232;2023-07-20T12:49:53;27.00;62.40
4461;DHT22;2243;48.812;9.232;2023-07-20T12:52:24;26.80;63.20
4461;DHT22;2243;48.812;9.232;2023-07-20T12:54:55;26.80;63.40
4461;DHT22;2243;48.812;9.232;2023-07-20T12:57:26;27.10;63.00
4461;DHT22;2243;48.812;9.232;2023-07-20T12:59:57;27.20;64.10
4461;DHT22;2243;48.812;9.232;2023-07-20T13:02:28;27.50;62.90
4461;DHT22;2243;48.812;9.232;2023-07-20T13:04:59;27.70;61.30
4461;DHT22;2243;48.812;9.232;2023-07-20T13:07:32;27.70;60.90
4461;DHT22;2243;48.812;9.232;2023-07-20T13:10:09;27.90;60.00
4461;DHT22;2243;48.812;9.232;2023-07-20T13:12:41;27.80;61.50
4461;DHT22;2243;48.812;9.232;2023-07-20T13:15:12;27.80;60.30
4461;DHT22;2243;48.812;9.232;2023-07-20T13:17:43;28.00;62.40
4461;DHT22;2243;48.812;9.232;2023-07-20T13:20:14;28.10;61.20
4461;DHT22;2243;48.812;9.232;2023-07-20T13:22:45;28.30;59.50
4461;DHT22;2243;48.812;9.232;2023-07-20T13:25:16;28.20;59.10
4461;DHT22;2243;48.812;9.232;2023-07-20T13:27:50;28.00;59.10
4461;DHT22;2243;48.812;9.232;2023-07-20T13:30:21;28.00;59.70
4461;DHT22;2243;48.812;9.232;2023-07-20T13:32:53;27.90;61.60
4461;DHT22;2243;48.812;9.232;2023-07-20T13:35:24;28.10;60.10
4461;DHT22;2243;48.812;9.232;2023-07-20T13:37:55;28.50;59.30
4461;DHT22;2243;48.812;9.232;2023-07-20T13:40:27;28.60;59.60
4461;DHT22;2243;48.812;9.232;2023-07-20T13:42:58;28.70;57.80
4461;DHT22;2243;48.812;9.232;2023-07-20T13:45:29;28.60;59.00
4461;DHT22;2243;48.812;9.232;2023-07-20T13:48:01;28.60;58.40
4461;DHT22;2243;48.812;9.232;2023-07-20T13:50:36;28.50;58.90
4461;DHT22;2243;48.812;9.232;2023-07-20T13:53:09;28.60;57.80
4461;DHT22;2243;48.812;9.232;2023-07-20T13:55:43;28.40;58.40
4461;DHT22;2243;48.812;9.232;2023-07-20T13:58:18;28.20;59.80
4461;DHT22;2243;48.812;9.232;2023-07-20T14:00:49;28.20;59.60
4461;DHT22;2243;48.812;9.232;2023-07-20T14:03:20;28.30;60.50
4461;DHT22;2243;48.812;9.232;2023-07-20T14:05:51;28.60;61.20
4461;DHT22;2243;48.812;9.232;2023-07-20T14:08:25;28.70;60.10
4461;DHT22;2243;48.812;9.232;2023-07-20T14:10:56;28.90;59.00
4461;DHT22;2243;48.812;9.232;2023-07-20T14:13:30;29.10;58.60
4461;DHT22;2243;48.812;9.232;2023-07-20T14:16:16;29.00;58.10
4461;DHT22;2243;48.812;9.232;2023-07-20T14:18:49;29.00;57.50
4461;DHT22;2243;48.812;9.232;2023-07-20T14:21:21;29.10;59.00
4461;DHT22;2243;48.812;9.232;2023-07-20T14:23:52;29.10;58.90
4461;DHT22;2243;48.812;9.232;2023-07-20T14:26:24;29.20;57.30
4461;DHT22;2243;48.812;9.232;2023-07-20T14:28:55;29.50;57.10
4461;DHT22;2243;48.812;9.232;2023-07-20T14:31:26;29.20;58.50
4461;DHT22;2243;48.812;9.232;2023-07-20T14:33:57;29.40;56.40
4461;DHT22;2243;48.812;9.232;2023-07-20T14:36:30;29.50;56.60
4461;DHT22;2243;48.812;9.232;2023-07-20T14:39:04;29.40;55.20
4461;DHT22;2243;48.812;9.232;2023-07-20T14:41:35;29.00;55.30
4461;DHT22;2243;48.812;9.232;2023-07-20T14:44:07;28.70;56.60
4461;DHT22;2243;48.812;9.232;2023-07-20T14:46:38;28.80;57.20
4461;DHT22;2243;48.812;9.232;2023-07-20T14:49:09;28.70;56.20
4461;DHT22;2243;48.812;9.232;2023-07-20T14:51:41;28.90;57.30
4461;DHT22;2243;48.812;9.232;2023-07-20T14:54:17;29.30;54.70
4461;DHT22;2243;48.812;9.232;2023-07-20T14:56:51;29.10;55.20
4461;DHT22;2243;48.812;9.232;2023-07-20T14:59:23;29.10;57.00
4461;DHT22;2243;48.812;9.232;2023-07-20T15:01:54;29.20;55.10
4461;DHT22;2243;48.812;9.232;2023-07-20T15:04:25;29.30;55.40
4461;DHT22;2243;48.812;9.232;2023-07-20T15:06:57;29.40;54.80
4461;DHT22;2243;48.812;9.232;2023-07-20T15:09:28;29.50;54.30
4461;DHT22;2243;48.812;9.232;2023-07-20T15:11:59;29.50;54.10
4461;DHT22;2243;48.812;9.232;2023-07-20T15:14:30;29.30;54.50
4461;DHT22;2243;48.812;9.232;2023-07-20T15:17:01;29.10;55.10
4461;DHT22;2243;48.812;9.232;2023-07-20T15:19:33;29.20;56.50
4461;DHT22;2243;48.812;9.232;2023-07-20T15:22:05;29.30;55.70
4461;DHT22;2243;48.812;9.232;2023-07-20T15:24:37;29.50;54.80
4461;DHT22;2243;48.812;9.232;2023-07-20T15:27:08;29.60;56.10
4461;DHT22;2243;48.812;9.232;2023-07-20T15:29:39;29.50;54.80
4461;DHT22;2243;48.812;9.232;2023-07-20T15:32:10;29.50;54.50
4461;DHT22;2243;48.812;9.232;2023-07-20T15:34:41;29.40;54.50
4461;DHT22;2243;48.812;9.232;2023-07-20T15:37:13;29.50;55.50
4461;DHT22;2243;48.812;9.232;2023-07-20T15:39:47;29.70;54.40
4461;DHT22;2243;48.812;9.232;2023-07-20T15:42:19;29.60;54.90
4461;DHT22;2243;48.812;9.232;2023-07-20T15:45:07;29.70;54.50
4461;DHT22;2243;48.812;9.232;2023-07-20T15:47:39;29.90;55.20
4461;DHT22;2243;48.812;9.232;2023-07-20T15:50:10;29.90;54.90
4461;DHT22;2243;48.812;9.232;2023-07-20T15:52:43;29.50;54.00
4461;DHT22;2243;48.812;9.232;2023-07-20T15:55:14;29.30;56.00
4461;DHT22;2243;48.812;9.232;2023-07-20T15:57:45;29.40;55.60
4461;DHT22;2243;48.812;9.232;2023-07-20T16:00:17;29.60;55.00
4461;DHT22;2243;48.812;9.232;2023-07-20T16:02:48;29.40;55.30
4461;DHT22;2243;48.812;9.232;2023-07-20T16:05:20;29.60;54.60
4461;DHT22;2243;48.812;9.232;2023-07-20T16:07:51;29.20;55.20
4461;DHT22;2243;48.812;9.232;2023-07-20T16:10:25;29.10;55.90
4461;DHT22;2243;48.812;9.232;2023-07-20T16:13:06;29.30;54.50
4461;DHT22;2243;48.812;9.232;2023-07-20T16:15:37;29.00;55.30
4461;DHT22;2243;48.812;9.232;2023-07-20T16:18:10;28.80;55.10
4461;DHT22;2243;48.812;9.232;2023-07-20T16:20:41;28.80;55.20
4461;DHT22;2243;48.812;9.232;2023-07-20T16:23:13;28.90;54.90
4461;DHT22;2243;48.812;9.232;2023-07-20T16:25:47;28.60;57.60
4461;DHT22;2243;48.812;9.232;2023-07-20T16:28:18;28.50;55.40
4461;DHT22;2243;48.812;9.232;2023-07-20T16:30:49;28.60;56.20
4461;DHT22;2243;48.812;9.232;2023-07-20T16:33:20;28.60;55.80
4461;DHT22;2243;48.812;9.232;2023-07-20T16:35:51;28.70;56.20
4461;DHT22;2243;48.812;9.232;2023-07-20T16:38:28;28.90;54.90
4461;DHT22;2243;48.812;9.232;2023-07-20T16:41:13;28.50;55.20
4461;DHT22;2243;48.812;9.232;2023-07-20T16:43:44;28.40;55.40
4461;DHT22;2243;48.812;9.232;2023-07-20T16:46:18;28.40;54.80
4461;DHT22;2243;48.812;9.232;2023-07-20T16:48:52;28.20;55.90
4461;DHT22;2243;48.812;9.232;2023-07-20T16:51:25;28.20;56.00
4461;DHT22;2243;48.812;9.232;2023-07-20T16:53:57;28.20;55.40